Observation data for Jayton on 12/08/2018      Previous  Date       Current Mesonet Observations  Soil Data  Daily Summary Page  Observations in Plain Language
KJTS 080600Z 01008KT 00/01 A3029 RMK A01 T00010011  RH  -9999%=      5-min Rain = 0
KJTS 080605Z 02006G13KT 00/01 A3028 RMK A01 T00020012  RH  -9999%=      5-min Rain = 0
KJTS 080610Z 02008G13KT 00/01 A3028 RMK A01 T00020012  RH  -9999%=      5-min Rain = 0
KJTS 080615Z 02010G15KT 00/01 A3027 RMK A01 T00010010  RH  -9999%=      5-min Rain = 0
KJTS 080620Z 03009G14KT 00/01 A3026 RMK A01 T00000010  RH  -9999%=      5-min Rain = 0
KJTS 080625Z 03009KT 00/01 A3026 RMK A01 T00000010  RH  -9999%=      5-min Rain = 0.01
KJTS 080630Z 03008KT 00/01 A3026 RMK A01 T00000010  RH  -9999%=      5-min Rain = 0
KJTS 080635Z 02007G12KT 00/01 A3027 RMK A01 T00010011  RH  -9999%=      5-min Rain = 0
KJTS 080640Z 02007KT 00/01 A3028 RMK A01 T00010011  RH  -9999%=      5-min Rain = 0
KJTS 080645Z 01007KT 00/01 A3028 RMK A01 T00010012  RH  -9999%=      5-min Rain = 0
KJTS 080650Z 01007KT 00/01 A3028 RMK A01 T00010012  RH  -9999%=      5-min Rain = 0
KJTS 080655Z 01009KT 00/01 A3028 RMK A01 T00020012  RH  -9999%=      5-min Rain = 0
KJTS 080700Z 01007KT 00/01 A3029 RMK A01 T00020012  RH  -9999%=      5-min Rain = 0
KJTS 080705Z 36007KT 00/01 A3029 RMK A01 T00020012  RH  -9999%=      5-min Rain = 0
KJTS 080710Z 36007KT 00/01 A3029 RMK A01 T00020010  RH  -9999%=      5-min Rain = 0
KJTS 080715Z 36008KT 00/01 A3029 RMK A01 T00010008  RH  -9999%=      5-min Rain = 0
KJTS 080720Z 36009KT 00/01 A3029 RMK A01 T00010010  RH  -9999%=      5-min Rain = 0.01
KJTS 080725Z 36009KT 00/01 A3029 RMK A01 T00010010  RH  -9999%=      5-min Rain = 0.01
KJTS 080730Z 00009KT 00/01 A3029 RMK A01 T00000010  RH  -9999%=      5-min Rain = 0
KJTS 080735Z 00010KT 00/01 A3029 RMK A01 T00000010  RH  -9999%=      5-min Rain = 0.01
KJTS 080740Z 01009KT 00/01 A3028 RMK A01 T00010010  RH  -9999%=      5-min Rain = 0
KJTS 080745Z 01008KT 00/01 A3028 RMK A01 T00010011  RH  -9999%=      5-min Rain = 0
KJTS 080750Z 02010KT 00/01 A3028 RMK A01 T00010010  RH  -9999%=      5-min Rain = 0
KJTS 080755Z 02009G14KT 00/01 A3027 RMK A01 T00000010  RH  -9999%=      5-min Rain = 0
KJTS 080800Z 02009G14KT 00/01 A3027 RMK A01 T00000010  RH  -9999%=      5-min Rain = 0.01
KJTS 080805Z 02009G14KT 00/01 A3027 RMK A01 T00000010  RH  -9999%=      5-min Rain = 0
KJTS 080810Z 02009KT 00/01 A3027 RMK A01 T00000010  RH  -9999%=      5-min Rain = 0
KJTS 080815Z 02007KT 00/01 A3027 RMK A01 T00000010  RH  -9999%=      5-min Rain = 0
KJTS 080820Z 02009G14KT 00/01 A3027 RMK A01 T00010011  RH  -9999%=      5-min Rain = 0.01
KJTS 080825Z 01010KT 00/01 A3027 RMK A01 T00000010  RH  -9999%=      5-min Rain = 0.02
KJTS 080830Z 01008G13KT 00/01 A3027 RMK A01 T00010011  RH  -9999%=      5-min Rain = 0.01
KJTS 080835Z 02009G14KT 00/01 A3026 RMK A01 T00010011  RH  -9999%=      5-min Rain = 0
KJTS 080840Z 01008G15KT 00/01 A3026 RMK A01 T00010011  RH  -9999%=      5-min Rain = 0.01
KJTS 080845Z 01008KT 00/01 A3027 RMK A01 T00010011  RH  -9999%=      5-min Rain = 0
KJTS 080850Z 01009G14KT 00/01 A3026 RMK A01 T00010011  RH  -9999%=      5-min Rain = 0
KJTS 080855Z 01011KT 00/01 A3026 RMK A01 T00010011  RH  -9999%=      5-min Rain = 0.01
KJTS 080900Z 01010G15KT 00/01 A3026 RMK A01 T00010011  RH  -9999%=      5-min Rain = 0
KJTS 080905Z 02009KT 00/01 A3026 RMK A01 T00010011  RH  -9999%=      5-min Rain = 0
KJTS 080910Z 02010KT 00/01 A3026 RMK A01 T00010011  RH  -9999%=      5-min Rain = 0.01
KJTS 080915Z 02009G15KT 00/01 A3026 RMK A01 T00010011  RH  -9999%=      5-min Rain = 0
KJTS 080920Z 01008G13KT 00/01 A3026 RMK A01 T00010011  RH  -9999%=      5-min Rain = 0
KJTS 080925Z 02009KT 00/01 A3026 RMK A01 T00010011  RH  -9999%=      5-min Rain = 0
KJTS 080930Z 01010KT 00/01 A3026 RMK A01 T00010011  RH  -9999%=      5-min Rain = 0
KJTS 080935Z 02009KT 00/01 A3026 RMK A01 T00020012  RH  -9999%=      5-min Rain = 0
KJTS 080940Z 02010G16KT 00/01 A3026 RMK A01 T00020012  RH  -9999%=      5-min Rain = 0
KJTS 080945Z 01011KT 00/01 A3026 RMK A01 T00020012  RH  -9999%=      5-min Rain = 0
KJTS 080950Z 01010G16KT 00/01 A3026 RMK A01 T00020012  RH  -9999%=      5-min Rain = 0
KJTS 080955Z 01009G14KT 00/01 A3026 RMK A01 T00030013  RH  -9999%=      5-min Rain = 0
KJTS 081000Z 01011KT 00/01 A3026 RMK A01 T00020012  RH  -9999%=      5-min Rain = 0
KJTS 081005Z 01011G16KT 00/01 A3025 RMK A01 T00020012  RH  -9999%=      5-min Rain = 0
KJTS 081010Z 01011G17KT 00/01 A3025 RMK A01 T00010010  RH  -9999%=      5-min Rain = 0
KJTS 081015Z 02010G17KT 00/01 A3025 RMK A01 T00010010  RH  -9999%=      5-min Rain = 0
KJTS 081020Z 01011G16KT 00/01 A3025 RMK A01 T00000008  RH  -9999%=      5-min Rain = 0
KJTS 081025Z 01009G16KT 00/01 A3025 RMK A01 T00000010  RH  -9999%=      5-min Rain = 0
KJTS 081030Z 01010KT 00/01 A3025 RMK A01 T00010010  RH  -9999%=      5-min Rain = 0
KJTS 081035Z 01010G15KT 00/01 A3025 RMK A01 T00010010  RH  -9999%=      5-min Rain = 0
KJTS 081040Z 01009KT 00/01 A3025 RMK A01 T00010009  RH  -9999%=      5-min Rain = 0
KJTS 081045Z 01009KT 00/01 A3025 RMK A01 T00010008  RH  -9999%=      5-min Rain = 0
KJTS 081050Z 01010KT 00/00 A3025 RMK A01 T00000002  RH  -9999%=      5-min Rain = 0
KJTS 081055Z 01011KT M00/M00 A3025 RMK A01 T10011003  RH  100%=      5-min Rain = 0
KJTS 081100Z 01011KT M00/M00 A3025 RMK A01 T10021003  RH  100%=      5-min Rain = 0
KJTS 081105Z 01008G13KT ERROR A3025 RMK A01 T10021003  RH  -9999%=      5-min Rain = 0
KJTS 081110Z 01009KT ERROR A3025 RMK A01 T10021003  RH  -9999%=      5-min Rain = 0
KJTS 081115Z 01010G15KT ERROR A3025 RMK A01 T10021003  RH  -9999%=      5-min Rain = 0
KJTS 081120Z 01009G15KT ERROR A3025 RMK A01 T10021003  RH  -9999%=      5-min Rain = 0
KJTS 081125Z 01011G17KT ERROR A3025 RMK A01 T10021003  RH  -9999%=      5-min Rain = 0
KJTS 081130Z 01011G16KT ERROR A3025 RMK A01 T10021003  RH  -9999%=      5-min Rain = 0
KJTS 081135Z 01009G14KT ERROR A3025 RMK A01 T10021003  RH  -9999%=      5-min Rain = 0
KJTS 081140Z 01012G17KT ERROR A3026 RMK A01 T10021003  RH  -9999%=      5-min Rain = 0
KJTS 081145Z 01011G16KT ERROR A3026 RMK A01 T10021003  RH  -9999%=      5-min Rain = 0
KJTS 081150Z 01011KT ERROR A3026 RMK A01 T10021003  RH  -9999%=      5-min Rain = 0
KJTS 081155Z 01010KT ERROR A3026 RMK A01 T10021003  RH  -9999%=      5-min Rain = 0
KJTS 081200Z 01012KT ERROR A3027 RMK A01 T10021003  RH  -9999%=      5-min Rain = 0
KJTS 081205Z 01010KT ERROR A3027 RMK A01 T10021003  RH  -9999%=      5-min Rain = 0
KJTS 081210Z 01008KT ERROR A3027 RMK A01 T10021003  RH  -9999%=      5-min Rain = 0
KJTS 081215Z 02009G14KT ERROR A3027 RMK A01 T10021003  RH  -9999%=      5-min Rain = 0
KJTS 081220Z 02009KT ERROR A3027 RMK A01 T10021003  RH  -9999%=      5-min Rain = 0
KJTS 081225Z 02008KT ERROR A3027 RMK A01 T10021003  RH  -9999%=      5-min Rain = 0
KJTS 081230Z 01007KT ERROR A3028 RMK A01 T10021003  RH  -9999%=      5-min Rain = 0
KJTS 081235Z 01007KT ERROR A3028 RMK A01 T10021003  RH  -9999%=      5-min Rain = 0
KJTS 081240Z 01009KT ERROR A3028 RMK A01 T10021003  RH  -9999%=      5-min Rain = 0
KJTS 081245Z 01008KT ERROR A3028 RMK A01 T10021003  RH  -9999%=      5-min Rain = 0
KJTS 081250Z 01008KT ERROR A3029 RMK A01 T10021003  RH  -9999%=      5-min Rain = 0
KJTS 081255Z 01008KT ERROR A3029 RMK A01 T10021003  RH  -9999%=      5-min Rain = 0
KJTS 081300Z 01008KT ERROR A3029 RMK A01 T10021003  RH  -9999%=      5-min Rain = 0
KJTS 081305Z 01009KT 01/00 A3029 RMK A01 T0-110000  RH  -9999%=      5-min Rain = 0
KJTS 081310Z 02008KT 01/00 A3029 RMK A01 T0-120000  RH  -9999%=      5-min Rain = 0
KJTS 081315Z 01009KT 01/00 A3029 RMK A01 T0-120000  RH  -9999%=      5-min Rain = 0
KJTS 081320Z 01008KT 01/00 A3029 RMK A01 T0-1200-0  RH  -9999%=      5-min Rain = 0
KJTS 081325Z 00009KT 01/00 A3029 RMK A01 T0-120000  RH  -9999%=      5-min Rain = 0
KJTS 081330Z 01009KT 01/00 A3029 RMK A01 T0-120000  RH  -9999%=      5-min Rain = 0
KJTS 081335Z 01010KT 01/00 A303 RMK A01 T0-1200-0  RH  -9999%=      5-min Rain = 0
KJTS 081340Z 00009KT 01/00 A303 RMK A01 T0-1200-0  RH  -9999%=      5-min Rain = 0
KJTS 081345Z 00008KT 01/00 A303 RMK A01 T0-1200-0  RH  -9999%=      5-min Rain = 0
KJTS 081350Z 35007KT 01/00 A303 RMK A01 T0-1200-0  RH  -9999%=      5-min Rain = 0
KJTS 081355Z 36009KT M01/M00 A3031 RMK A01 T10131001  RH  -9999%=      5-min Rain = 0
KJTS 081400Z 00009KT M01/M00 A3031 RMK A01 T10131001  RH  -9999%=      5-min Rain = 0
KJTS 081405Z 36008KT M01/M00 A3031 RMK A01 T10131001  RH  -9999%=      5-min Rain = 0
KJTS 081410Z 00008KT M01/M00 A3031 RMK A01 T10131001  RH  -9999%=      5-min Rain = 0
KJTS 081415Z 00009KT M01/M00 A3031 RMK A01 T10141002  RH  -9999%=      5-min Rain = 0
KJTS 081420Z 00009KT M01/M00 A3031 RMK A01 T10141002  RH  -9999%=      5-min Rain = 0
KJTS 081425Z 00010KT M01/M00 A3032 RMK A01 T10141002  RH  -9999%=      5-min Rain = 0
KJTS 081430Z 00008KT M01/M00 A3032 RMK A01 T10141002  RH  -9999%=      5-min Rain = 0
KJTS 081435Z 00007KT M01/M00 A3032 RMK A01 T10141001  RH  -9999%=      5-min Rain = 0
KJTS 081440Z 36007KT M01/M00 A3032 RMK A01 T10141001  RH  -9999%=      5-min Rain = 0
KJTS 081445Z 36008KT M01/M00 A3032 RMK A01 T10141002  RH  -9999%=      5-min Rain = 0
KJTS 081450Z 00008KT M01/M00 A3032 RMK A01 T10141002  RH  -9999%=      5-min Rain = 0
KJTS 081455Z 00008KT M01/M00 A3032 RMK A01 T10141002  RH  -9999%=      5-min Rain = 0
KJTS 081500Z 00008KT M01/M00 A3033 RMK A01 T10141002  RH  -9999%=      5-min Rain = 0
KJTS 081505Z 00008KT M01/M00 A3033 RMK A01 T10141002  RH  -9999%=      5-min Rain = 0
KJTS 081510Z 00008KT M01/M00 A3033 RMK A01 T10141002  RH  -9999%=      5-min Rain = 0
KJTS 081515Z 36009KT M01/M00 A3033 RMK A01 T10141002  RH  -9999%=      5-min Rain = 0
KJTS 081520Z 36008KT M01/M00 A3034 RMK A01 T10141002  RH  -9999%=      5-min Rain = 0
KJTS 081525Z 36008KT M01/M00 A3034 RMK A01 T10141002  RH  -9999%=      5-min Rain = 0
KJTS 081530Z 36008KT M01/M00 A3034 RMK A01 T10141002  RH  -9999%=      5-min Rain = 0
KJTS 081535Z 36008KT M01/M00 A3034 RMK A01 T10141002  RH  -9999%=      5-min Rain = 0
KJTS 081540Z 36008KT M01/M00 A3034 RMK A01 T10141002  RH  -9999%=      5-min Rain = 0
KJTS 081545Z 00007KT M01/M00 A3034 RMK A01 T10141002  RH  -9999%=      5-min Rain = 0
KJTS 081550Z 00008KT M01/M00 A3034 RMK A01 T10141002  RH  -9999%=      5-min Rain = 0
KJTS 081555Z 01008KT M01/M00 A3034 RMK A01 T10141002  RH  -9999%=      5-min Rain = 0
KJTS 081600Z 00008KT M01/M00 A3034 RMK A01 T10141002  RH  -9999%=      5-min Rain = 0
KJTS 081605Z 00008KT M01/M00 A3034 RMK A01 T10141002  RH  -9999%=      5-min Rain = 0
KJTS 081610Z 36008KT M01/M00 A3034 RMK A01 T10141002  RH  -9999%=      5-min Rain = 0
KJTS 081615Z 35009KT M01/M00 A3034 RMK A01 T10141002  RH  -9999%=      5-min Rain = 0
KJTS 081620Z 36010KT M01/M00 A3034 RMK A01 T10141002  RH  -9999%=      5-min Rain = 0
KJTS 081625Z 36010KT M02/M00 A3035 RMK A01 T10151003  RH  -9999%=      5-min Rain = 0
KJTS 081630Z 36010KT M02/M00 A3035 RMK A01 T10151003  RH  -9999%=      5-min Rain = 0
KJTS 081635Z 36012KT M02/M00 A3035 RMK A01 T10151003  RH  -9999%=      5-min Rain = 0
KJTS 081640Z 01012KT M02/M00 A3035 RMK A01 T10161004  RH  -9999%=      5-min Rain = 0
KJTS 081645Z 01009KT M02/M01 A3035 RMK A01 T10171005  RH  -9999%=      5-min Rain = 0
KJTS 081650Z 01009KT M02/M01 A3035 RMK A01 T10171005  RH  -9999%=      5-min Rain = 0
KJTS 081655Z 01010KT M02/M01 A3035 RMK A01 T10171005  RH  -9999%=      5-min Rain = 0
KJTS 081700Z 36010KT M02/M01 A3035 RMK A01 T10181006  RH  -9999%=      5-min Rain = 0
KJTS 081705Z 36009G14KT M02/M01 A3035 RMK A01 T10181006  RH  -9999%=      5-min Rain = 0
KJTS 081710Z 36010KT M02/M01 A3035 RMK A01 T10171005  RH  -9999%=      5-min Rain = 0
KJTS 081715Z 35008KT M02/M01 A3035 RMK A01 T10171005  RH  -9999%=      5-min Rain = 0
KJTS 081720Z 35008KT M02/M00 A3035 RMK A01 T10161004  RH  -9999%=      5-min Rain = 0
KJTS 081725Z 35008KT M02/M00 A3034 RMK A01 T10161004  RH  -9999%=      5-min Rain = 0
KJTS 081730Z 35007KT M02/M00 A3034 RMK A01 T10151003  RH  -9999%=      5-min Rain = 0
KJTS 081735Z 35008KT M01/M00 A3034 RMK A01 T10141002  RH  -9999%=      5-min Rain = 0
KJTS 081740Z 35008KT M01/M00 A3034 RMK A01 T10131001  RH  -9999%=      5-min Rain = 0
KJTS 081745Z 35008KT M01/M00 A3034 RMK A01 T10131001  RH  -9999%=      5-min Rain = 0
KJTS 081750Z 34007KT 01/00 A3034 RMK A01 T0-1200-0  RH  -9999%=      5-min Rain = 0
KJTS 081755Z 34008KT ERROR A3034 RMK A01 T0-1200-0  RH  -9999%=      5-min Rain = 0
KJTS 081800Z 34008KT ERROR A3033 RMK A01 T0-1200-0  RH  -9999%=      5-min Rain = 0
KJTS 081805Z 34008KT ERROR A3033 RMK A01 T0-1200-0  RH  -9999%=      5-min Rain = 0
KJTS 081810Z 34010KT ERROR A3033 RMK A01 T0-1200-0  RH  -9999%=      5-min Rain = 0
KJTS 081815Z 35010KT ERROR A3032 RMK A01 T0-1200-0  RH  -9999%=      5-min Rain = 0
KJTS 081820Z 35011KT M01/M00 A3032 RMK A01 T10121001  RH  -9999%=      5-min Rain = 0
KJTS 081825Z 35011KT 01/00 A3032 RMK A01 T0-1200-0  RH  -9999%=      5-min Rain = 0
KJTS 081830Z 35011KT M01/M00 A3032 RMK A01 T10121001  RH  -9999%=      5-min Rain = 0
KJTS 081835Z 35010KT M01/M00 A3032 RMK A01 T10121001  RH  -9999%=      5-min Rain = 0.01
KJTS 081840Z 35010KT 01/00 A3032 RMK A01 T0-1200-0  RH  -9999%=      5-min Rain = 0
KJTS 081845Z 35010KT 01/00 A3032 RMK A01 T0-110000  RH  -9999%=      5-min Rain = 0
KJTS 081850Z 36010KT ERROR A3031 RMK A01 T0-110000  RH  -9999%=      5-min Rain = 0.01
KJTS 081855Z 35010KT ERROR A3031 RMK A01 T0-110000  RH  -9999%=      5-min Rain = 0
KJTS 081900Z 34010KT 01/00 A3031 RMK A01 T0-110000  RH  -9999%=      5-min Rain = 0.01
KJTS 081905Z 34011KT 01/00 A3031 RMK A01 T0-1100-0  RH  -9999%=      5-min Rain = 0
KJTS 081910Z 34010KT 01/00 A3031 RMK A01 T0-110000  RH  -9999%=      5-min Rain = 0
KJTS 081915Z 34011KT 01/00 A3031 RMK A01 T0-110000  RH  -9999%=      5-min Rain = 0.01
KJTS 081920Z 35010KT ERROR A3031 RMK A01 T0-110000  RH  -9999%=      5-min Rain = 0.01
KJTS 081925Z 35008KT ERROR A303 RMK A01 T0-110000  RH  -9999%=      5-min Rain = 0
KJTS 081930Z 35009KT ERROR A303 RMK A01 T0-110000  RH  -9999%=      5-min Rain = 0
KJTS 081935Z 35008KT ERROR A303 RMK A01 T0-110000  RH  -9999%=      5-min Rain = 0.01
KJTS 081940Z 35008KT ERROR A3029 RMK A01 T0-110000  RH  -9999%=      5-min Rain = 0.01
KJTS 081945Z 35007KT ERROR A3029 RMK A01 T0-110000  RH  -9999%=      5-min Rain = 0.01
KJTS 081950Z 35007KT ERROR A3029 RMK A01 T0-110000  RH  -9999%=      5-min Rain = 0.01
KJTS 081955Z 34008KT ERROR A3029 RMK A01 T0-110000  RH  -9999%=      5-min Rain = 0.01
KJTS 082000Z 34007KT ERROR A3029 RMK A01 T0-110000  RH  -9999%=      5-min Rain = 0
KJTS 082005Z 33005KT ERROR A3029 RMK A01 T0-110000  RH  -9999%=      5-min Rain = 0.01
KJTS 082010Z 34006KT ERROR A3028 RMK A01 T0-110000  RH  -9999%=      5-min Rain = 0.02
KJTS 082015Z 33007KT ERROR A3028 RMK A01 T0-110000  RH  -9999%=      5-min Rain = 0.01
KJTS 082020Z 33007KT ERROR A3028 RMK A01 T0-110000  RH  -9999%=      5-min Rain = 0.01
KJTS 082025Z 33006KT ERROR A3028 RMK A01 T0-110000  RH  -9999%=      5-min Rain = 0.01
KJTS 082030Z 33005KT ERROR A3028 RMK A01 T0-110000  RH  -9999%=      5-min Rain = 0.01
KJTS 082035Z 33007KT ERROR A3028 RMK A01 T0-110000  RH  -9999%=      5-min Rain = 0.02
KJTS 082040Z 33008KT ERROR A3028 RMK A01 T0-110000  RH  -9999%=      5-min Rain = 0.01
KJTS 082045Z 32008KT ERROR A3029 RMK A01 T0-110000  RH  -9999%=      5-min Rain = 0.01
KJTS 082050Z 32009KT ERROR A3028 RMK A01 T0-110000  RH  -9999%=      5-min Rain = 0.01
KJTS 082055Z 33008KT ERROR A3028 RMK A01 T0-110000  RH  -9999%=      5-min Rain = 0.01
KJTS 082100Z 33007KT ERROR A3028 RMK A01 T0-110000  RH  -9999%=      5-min Rain = 0.02
KJTS 082105Z 34004KT ERROR A3028 RMK A01 T0-110000  RH  -9999%=      5-min Rain = 0
KJTS 082110Z 33006KT ERROR A3028 RMK A01 T0-110000  RH  -9999%=      5-min Rain = 0.01
KJTS 082115Z 33006KT ERROR A3028 RMK A01 T0-110000  RH  -9999%=      5-min Rain = 0.02
KJTS 082120Z 34007KT ERROR A3028 RMK A01 T0-110000  RH  -9999%=      5-min Rain = 0.01
KJTS 082125Z 34007KT ERROR A3028 RMK A01 T0-110000  RH  -9999%=      5-min Rain = 0
KJTS 082130Z 33007KT ERROR A3028 RMK A01 T0-110000  RH  -9999%=      5-min Rain = 0.01
KJTS 082135Z 33007KT ERROR A3028 RMK A01 T0-110000  RH  -9999%=      5-min Rain = 0.01
KJTS 082140Z 33007KT ERROR A3028 RMK A01 T0-110000  RH  -9999%=      5-min Rain = 0.01
KJTS 082145Z 33007KT ERROR A3028 RMK A01 T0-110000  RH  -9999%=      5-min Rain = 0
KJTS 082150Z 33007KT ERROR A3028 RMK A01 T0-110000  RH  -9999%=      5-min Rain = 0.01
KJTS 082155Z 33006KT M01/M00 A3028 RMK A01 T10071003  RH  -9999%=      5-min Rain = 0.01
KJTS 082200Z 33005KT M01/M00 A3027 RMK A01 T10061001  RH  -9999%=      5-min Rain = 0
KJTS 082205Z 33005KT M01/M01 A3027 RMK A01 T10061006  RH  -9999%=      5-min Rain = 0.01
KJTS 082210Z 32006KT M01/M00 A3027 RMK A01 T10051004  RH  -9999%=      5-min Rain = 0
KJTS 082215Z 33006KT M01/M01 A3027 RMK A01 T10061007  RH  100%=      5-min Rain = 0.01
KJTS 082220Z 33006KT M01/M01 A3027 RMK A01 T10071008  RH  100%=      5-min Rain = 0
KJTS 082225Z 33007KT M01/M01 A3027 RMK A01 T10071008  RH  100%=      5-min Rain = 0.01
KJTS 082230Z 32006KT M01/M01 A3027 RMK A01 T10061008  RH  100%=      5-min Rain = 0
KJTS 082235Z 32006KT M01/M01 A3027 RMK A01 T10061008  RH  099%=      5-min Rain = 0
KJTS 082240Z 32006KT M01/M01 A3027 RMK A01 T10051012  RH  096%=      5-min Rain = 0.01
KJTS 082245Z 32006KT M01/M01 A3027 RMK A01 T10051014  RH  095%=      5-min Rain = 0
KJTS 082250Z 32007KT M01/M02 A3028 RMK A01 T10051016  RH  093%=      5-min Rain = 0
KJTS 082255Z 32007KT M01/M02 A3028 RMK A01 T10051017  RH  093%=      5-min Rain = 0.01
KJTS 082300Z 32006KT M01/M02 A3028 RMK A01 T10051016  RH  093%=      5-min Rain = 0
KJTS 082305Z 31006KT M00/M02 A3028 RMK A01 T10041016  RH  092%=      5-min Rain = 0
KJTS 082310Z 31006KT M00/M02 A3028 RMK A01 T10041017  RH  092%=      5-min Rain = 0
KJTS 082315Z 32007KT M00/M02 A3028 RMK A01 T10041019  RH  090%=      5-min Rain = 0
KJTS 082320Z 32006KT M00/M02 A3028 RMK A01 T10041019  RH  090%=      5-min Rain = 0
KJTS 082325Z 31005KT M00/M02 A3028 RMK A01 T10041018  RH  091%=      5-min Rain = 0.01
KJTS 082330Z 30006KT M00/M02 A3028 RMK A01 T10041018  RH  091%=      5-min Rain = 0
KJTS 082335Z 29006KT M00/M02 A3028 RMK A01 T10041019  RH  090%=      5-min Rain = 0
KJTS 082340Z 29004KT M00/M02 A3028 RMK A01 T10031020  RH  090%=      5-min Rain = 0
KJTS 082345Z 29003KT M00/M02 A3028 RMK A01 T10041020  RH  090%=      5-min Rain = 0
KJTS 082350Z 29003KT M01/M02 A3028 RMK A01 T10051021  RH  090%=      5-min Rain = 0
KJTS 082355Z 30003KT M01/M02 A3028 RMK A01 T10071022  RH  091%=      5-min Rain = 0
KJTS 090000Z 31002KT M01/M02 A3028 RMK A01 T10091022  RH  092%=      5-min Rain = 0
KJTS 090005Z 31002KT M01/M02 A3028 RMK A01 T10091021  RH  093%=      5-min Rain = 0
KJTS 090010Z 31003KT M01/M02 A3028 RMK A01 T10101020  RH  093%=      5-min Rain = 0
KJTS 090015Z 32003KT M01/M02 A3028 RMK A01 T10111022  RH  093%=      5-min Rain = 0
KJTS 090020Z 31003KT M01/M02 A3028 RMK A01 T10121023  RH  093%=      5-min Rain = 0
KJTS 090025Z 31004KT M01/M02 A3028 RMK A01 T10141024  RH  093%=      5-min Rain = 0
KJTS 090030Z 32003KT M02/M03 A3028 RMK A01 T10161026  RH  093%=      5-min Rain = 0
KJTS 090035Z 32003KT M02/M03 A3028 RMK A01 T10171026  RH  094%=      5-min Rain = 0
KJTS 090040Z 31004KT M02/M03 A3028 RMK A01 T10171026  RH  094%=      5-min Rain = 0
KJTS 090045Z 30004KT M02/M03 A3028 RMK A01 T10161026  RH  094%=      5-min Rain = 0
KJTS 090050Z 30004KT M02/M03 A3028 RMK A01 T10151026  RH  093%=      5-min Rain = 0
KJTS 090055Z 30005KT M02/M03 A3029 RMK A01 T10161027  RH  092%=      5-min Rain = 0
KJTS 090100Z 30005KT M02/M03 A3029 RMK A01 T10181030  RH  092%=      5-min Rain = 0
KJTS 090105Z 30005KT M02/M03 A3029 RMK A01 T10201031  RH  093%=      5-min Rain = 0
KJTS 090110Z 30005KT M02/M03 A3029 RMK A01 T10211031  RH  094%=      5-min Rain = 0
KJTS 090115Z 30005KT M02/M03 A3029 RMK A01 T10231033  RH  094%=      5-min Rain = 0
KJTS 090120Z 30006KT M02/M03 A3029 RMK A01 T10231032  RH  094%=      5-min Rain = 0
KJTS 090125Z 29006KT M02/M03 A303 RMK A01 T10171029  RH  092%=      5-min Rain = 0
KJTS 090130Z 29006KT M02/M03 A303 RMK A01 T10151029  RH  091%=      5-min Rain = 0
KJTS 090135Z 29006KT M01/M03 A303 RMK A01 T10141029  RH  090%=      5-min Rain = 0
KJTS 090140Z 29005KT M02/M03 A303 RMK A01 T10161031  RH  090%=      5-min Rain = 0
KJTS 090145Z 29005KT M02/M04 A303 RMK A01 T10211035  RH  091%=      5-min Rain = 0
KJTS 090150Z 28006KT M02/M03 A303 RMK A01 T10201031  RH  092%=      5-min Rain = 0
KJTS 090155Z 28006KT M02/M03 A303 RMK A01 T10181030  RH  092%=      5-min Rain = 0
KJTS 090200Z 28006KT M02/M03 A303 RMK A01 T10181030  RH  092%=      5-min Rain = 0
KJTS 090205Z 28006KT M02/M03 A303 RMK A01 T10181030  RH  092%=      5-min Rain = 0
KJTS 090210Z 29006KT M02/M03 A303 RMK A01 T10181029  RH  093%=      5-min Rain = 0
KJTS 090215Z 28006KT M02/M03 A303 RMK A01 T10211032  RH  093%=      5-min Rain = 0
KJTS 090220Z 29006KT M02/M03 A303 RMK A01 T10181025  RH  095%=      5-min Rain = 0
KJTS 090225Z 29005KT M02/M03 A303 RMK A01 T10171026  RH  094%=      5-min Rain = 0
KJTS 090230Z 29006KT M02/M03 A303 RMK A01 T10221031  RH  094%=      5-min Rain = 0
KJTS 090235Z 29005KT M03/M03 A303 RMK A01 T10251033  RH  095%=      5-min Rain = 0
KJTS 090240Z 28005KT M03/M03 A303 RMK A01 T10261031  RH  097%=      5-min Rain = 0
KJTS 090245Z 29005KT M03/M03 A303 RMK A01 T10261027  RH  100%=      5-min Rain = 0
KJTS 090250Z 29006KT M03/M03 A303 RMK A01 T10271029  RH  100%=      5-min Rain = 0
KJTS 090255Z 28006KT M03/M02 A303 RMK A01 T10251020  RH  -9999%=      5-min Rain = 0
KJTS 090300Z 28006KT M02/M03 A303 RMK A01 T10241025  RH  -9999%=      5-min Rain = 0
KJTS 090305Z 28006KT M02/M03 A303 RMK A01 T10241025  RH  100%=      5-min Rain = 0
KJTS 090310Z 27006KT M02/M03 A303 RMK A01 T10241025  RH  100%=      5-min Rain = 0
KJTS 090315Z 27006KT M02/M02 A303 RMK A01 T10241024  RH  100%=      5-min Rain = 0
KJTS 090320Z 27006KT M02/M03 A303 RMK A01 T10241025  RH  100%=      5-min Rain = 0
KJTS 090325Z 27006KT M02/M03 A3031 RMK A01 T10241025  RH  100%=      5-min Rain = 0
KJTS 090330Z 28006KT M03/M03 A3031 RMK A01 T10251026  RH  100%=      5-min Rain = 0
KJTS 090335Z 28006KT M03/M03 A3031 RMK A01 T10251026  RH  100%=      5-min Rain = 0
KJTS 090340Z 28006KT M03/M03 A3031 RMK A01 T10261027  RH  100%=      5-min Rain = 0
KJTS 090345Z 29005KT M03/M03 A3031 RMK A01 T10251026  RH  100%=      5-min Rain = 0
KJTS 090350Z 29004KT M03/M03 A3031 RMK A01 T10281031  RH  099%=      5-min Rain = 0
KJTS 090355Z 29004KT M03/M03 A3031 RMK A01 T10291029  RH  100%=      5-min Rain = 0
KJTS 090400Z 28005KT M03/M02 A3031 RMK A01 T10271023  RH  -9999%=      5-min Rain = 0
KJTS 090405Z 28004KT M03/M03 A3031 RMK A01 T10271026  RH  -9999%=      5-min Rain = 0
KJTS 090410Z 28005KT M03/M03 A3032 RMK A01 T10271028  RH  100%=      5-min Rain = 0
KJTS 090415Z 28005KT M03/M03 A3032 RMK A01 T10281028  RH  -9999%=      5-min Rain = 0
KJTS 090420Z 28005KT M03/M02 A3032 RMK A01 T10281019  RH  -9999%=      5-min Rain = 0
KJTS 090425Z 28005KT M03/M03 A3032 RMK A01 T10281025  RH  -9999%=      5-min Rain = 0
KJTS 090430Z 28005KT M03/M03 A3032 RMK A01 T10291029  RH  100%=      5-min Rain = 0
KJTS 090435Z 28005KT M03/M02 A3032 RMK A01 T10291022  RH  -9999%=      5-min Rain = 0
KJTS 090440Z 29005KT M03/M03 A3032 RMK A01 T10301028  RH  -9999%=      5-min Rain = 0
KJTS 090445Z 29005KT M03/M03 A3032 RMK A01 T10321029  RH  -9999%=      5-min Rain = 0
KJTS 090450Z 29005KT M03/M02 A3032 RMK A01 T10331023  RH  -9999%=      5-min Rain = 0
KJTS 090455Z 29005KT M03/M02 A3032 RMK A01 T10331023  RH  -9999%=      5-min Rain = 0
KJTS 090500Z 29005KT M03/M02 A3032 RMK A01 T10321022  RH  -9999%=      5-min Rain = 0
KJTS 090505Z 29005KT M03/M02 A3032 RMK A01 T10331023  RH  -9999%=      5-min Rain = 0
KJTS 090510Z 29005KT M03/M02 A3032 RMK A01 T10331023  RH  -9999%=      5-min Rain = 0
KJTS 090515Z 29005KT M03/M02 A3032 RMK A01 T10321021  RH  -9999%=      5-min Rain = 0
KJTS 090520Z 29005KT M03/M02 A3032 RMK A01 T10311021  RH  -9999%=      5-min Rain = 0
KJTS 090525Z 29005KT M03/M02 A3032 RMK A01 T10321022  RH  -9999%=      5-min Rain = 0
KJTS 090530Z 29005KT M03/M02 A3032 RMK A01 T10321022  RH  -9999%=      5-min Rain = 0
KJTS 090535Z 29005KT M03/M04 A3032 RMK A01 T10341035  RH  100%=      5-min Rain = 0
KJTS 090540Z 29005KT M03/M03 A3032 RMK A01 T10341025  RH  -9999%=      5-min Rain = 0
KJTS 090545Z 29005KT M03/M02 A3033 RMK A01 T10341024  RH  -9999%=      5-min Rain = 0
KJTS 090550Z 30005KT M04/M03 A3032 RMK A01 T10351030  RH  -9999%=      5-min Rain = 0
KJTS 090555Z 30006KT M04/M04 A3032 RMK A01 T10381036  RH  -9999%=      5-min Rain = 0

Page generated in 0.0088 seconds.